sensor_id;sensor_type;location;lat;lon;timestamp;pressure;altitude;pressure_sealevel;temperature;humidity
40502;BME280;29631;49.168;9.848;2023-02-18T00:00:21;97425.28;;;15.93;91.62
40502;BME280;29631;49.168;9.848;2023-02-18T00:02:48;97415.06;;;15.90;91.28
40502;BME280;29631;49.168;9.848;2023-02-18T00:05:15;97436.50;;;15.95;91.18
40502;BME280;29631;49.168;9.848;2023-02-18T00:07:41;97421.56;;;15.94;91.71
40502;BME280;29631;49.168;9.848;2023-02-18T00:10:11;97405.44;;;15.89;91.86
40502;BME280;29631;49.168;9.848;2023-02-18T00:12:38;97423.19;;;15.95;91.37
40502;BME280;29631;49.168;9.848;2023-02-18T00:15:04;97419.09;;;15.98;92.19
40502;BME280;29631;49.168;9.848;2023-02-18T00:17:30;97429.13;;;15.97;91.80
40502;BME280;29631;49.168;9.848;2023-02-18T00:19:56;97421.56;;;15.94;91.33
40502;BME280;29631;49.168;9.848;2023-02-18T00:22:22;97422.31;;;16.00;91.32
40502;BME280;29631;49.168;9.848;2023-02-18T00:24:49;97410.19;;;15.87;91.74
40502;BME280;29631;49.168;9.848;2023-02-18T00:27:15;97421.13;;;15.97;91.68
40502;BME280;29631;49.168;9.848;2023-02-18T00:29:41;97428.69;;;15.99;91.43
40502;BME280;29631;49.168;9.848;2023-02-18T00:32:06;97407.53;;;15.87;91.42
40502;BME280;29631;49.168;9.848;2023-02-18T00:34:32;97413.16;;;15.97;91.46
40502;BME280;29631;49.168;9.848;2023-02-18T00:36:58;97412.56;;;15.95;91.68
40502;BME280;29631;49.168;9.848;2023-02-18T00:39:24;97423.38;;;15.99;91.41
40502;BME280;29631;49.168;9.848;2023-02-18T00:41:49;97378.22;;;15.69;91.24
40502;BME280;29631;49.168;9.848;2023-02-18T00:44:15;97414.78;;;15.98;91.60
40502;BME280;29631;49.168;9.848;2023-02-18T00:46:41;97411.53;;;15.96;92.06
40502;BME280;29631;49.168;9.848;2023-02-18T00:49:07;97404.94;;;15.98;91.67
40502;BME280;29631;49.168;9.848;2023-02-18T00:51:34;97405.03;;;15.92;91.54
40502;BME280;29631;49.168;9.848;2023-02-18T00:54:00;97412.72;;;15.99;91.26
40502;BME280;29631;49.168;9.848;2023-02-18T00:56:25;97416.56;;;16.03;91.27
40502;BME280;29631;49.168;9.848;2023-02-18T00:58:51;97416.81;;;16.02;91.18
40502;BME280;29631;49.168;9.848;2023-02-18T01:01:18;97405.78;;;15.98;91.67
40502;BME280;29631;49.168;9.848;2023-02-18T01:03:44;97422.50;;;16.05;91.63
40502;BME280;29631;49.168;9.848;2023-02-18T01:06:11;97413.06;;;16.03;91.92
40502;BME280;29631;49.168;9.848;2023-02-18T01:08:38;97409.91;;;15.95;91.76
40502;BME280;29631;49.168;9.848;2023-02-18T01:11:05;97417.72;;;15.90;91.25
40502;BME280;29631;49.168;9.848;2023-02-18T01:13:31;97412.84;;;15.87;91.33
40502;BME280;29631;49.168;9.848;2023-02-18T01:15:57;97395.47;;;15.84;92.02
40502;BME280;29631;49.168;9.848;2023-02-18T01:18:25;97413.00;;;15.92;91.17
40502;BME280;29631;49.168;9.848;2023-02-18T01:20:51;97410.34;;;15.92;92.08
40502;BME280;29631;49.168;9.848;2023-02-18T01:23:17;97407.53;;;15.87;91.46
40502;BME280;29631;49.168;9.848;2023-02-18T01:25:43;97417.13;;;15.88;91.92
40502;BME280;29631;49.168;9.848;2023-02-18T01:28:12;97387.13;;;15.81;91.53
40502;BME280;29631;49.168;9.848;2023-02-18T01:30:38;97407.31;;;15.88;92.26
40502;BME280;29631;49.168;9.848;2023-02-18T01:33:05;97410.78;;;15.89;92.00
40502;BME280;29631;49.168;9.848;2023-02-18T01:35:31;97409.16;;;15.88;92.03
40502;BME280;29631;49.168;9.848;2023-02-18T01:37:56;97392.44;;;15.81;91.99
40502;BME280;29631;49.168;9.848;2023-02-18T01:40:25;97342.84;;;15.50;92.04
40502;BME280;29631;49.168;9.848;2023-02-18T01:42:51;97409.59;;;15.85;91.79
40502;BME280;29631;49.168;9.848;2023-02-18T01:48:39;97392.00;;;15.84;92.17
40502;BME280;29631;49.168;9.848;2023-02-18T01:51:23;97392.00;;;15.84;92.66
40502;BME280;29631;49.168;9.848;2023-02-18T01:54:08;97408.34;;;15.87;92.38
40502;BME280;29631;49.168;9.848;2023-02-18T01:56:41;97389.56;;;15.82;92.69
40502;BME280;29631;49.168;9.848;2023-02-18T01:59:19;97387.50;;;15.84;91.76
40502;BME280;29631;49.168;9.848;2023-02-18T02:01:46;97387.50;;;15.84;92.22
40502;BME280;29631;49.168;9.848;2023-02-18T02:04:12;97381.66;;;15.76;92.57
40502;BME280;29631;49.168;9.848;2023-02-18T02:06:38;97385.28;;;15.81;91.79
40502;BME280;29631;49.168;9.848;2023-02-18T02:09:06;97389.34;;;15.84;92.13
40502;BME280;29631;49.168;9.848;2023-02-18T02:32:31;97368.34;;;15.76;92.76
40502;BME280;29631;49.168;9.848;2023-02-18T02:36:22;97347.31;;;15.74;91.74
40502;BME280;29631;49.168;9.848;2023-02-18T02:38:39;97333.22;;;15.74;92.34
40502;BME280;29631;49.168;9.848;2023-02-18T02:41:50;97344.16;;;15.84;91.60
40502;BME280;29631;49.168;9.848;2023-02-18T02:44:53;97339.09;;;15.76;91.46
40502;BME280;29631;49.168;9.848;2023-02-18T02:50:45;97350.50;;;15.83;91.89
40502;BME280;29631;49.168;9.848;2023-02-18T02:53:22;97342.78;;;15.75;92.23
40502;BME280;29631;49.168;9.848;2023-02-18T02:55:49;97336.59;;;15.81;92.08
40502;BME280;29631;49.168;9.848;2023-02-18T02:58:17;97345.78;;;15.85;92.00
40502;BME280;29631;49.168;9.848;2023-02-18T03:16:27;97328.09;;;15.90;91.55
40502;BME280;29631;49.168;9.848;2023-02-18T03:19:28;97324.94;;;15.82;91.38
40502;BME280;29631;49.168;9.848;2023-02-18T03:22:04;97329.00;;;15.84;90.94
40502;BME280;29631;49.168;9.848;2023-02-18T03:24:44;97325.97;;;15.81;91.21
40502;BME280;29631;49.168;9.848;2023-02-18T03:27:43;97340.00;;;15.88;91.74
40502;BME280;29631;49.168;9.848;2023-02-18T03:30:30;97325.38;;;15.79;91.39
40502;BME280;29631;49.168;9.848;2023-02-18T03:33:03;97329.81;;;15.85;91.21
40502;BME280;29631;49.168;9.848;2023-02-18T03:35:30;97347.97;;;15.88;91.33
40502;BME280;29631;49.168;9.848;2023-02-18T03:40:39;97348.44;;;15.85;90.96
40502;BME280;29631;49.168;9.848;2023-02-18T03:43:04;97340.97;;;15.75;90.99
40502;BME280;29631;49.168;9.848;2023-02-18T03:45:30;97342.38;;;15.78;90.42
40502;BME280;29631;49.168;9.848;2023-02-18T03:47:56;97336.91;;;15.73;90.95
40502;BME280;29631;49.168;9.848;2023-02-18T03:50:22;97319.84;;;15.62;91.19
40502;BME280;29631;49.168;9.848;2023-02-18T03:52:48;97329.88;;;15.78;90.40
40502;BME280;29631;49.168;9.848;2023-02-18T03:55:14;97348.13;;;15.75;91.21
40502;BME280;29631;49.168;9.848;2023-02-18T03:57:40;97325.06;;;15.69;91.53
40502;BME280;29631;49.168;9.848;2023-02-18T04:00:07;97316.94;;;15.64;90.93
40502;BME280;29631;49.168;9.848;2023-02-18T04:02:33;97333.56;;;15.77;91.14
40502;BME280;29631;49.168;9.848;2023-02-18T04:04:59;97323.81;;;15.71;91.41
40502;BME280;29631;49.168;9.848;2023-02-18T04:07:25;97321.31;;;15.76;91.12
40502;BME280;29631;49.168;9.848;2023-02-18T04:09:51;97328.63;;;15.81;91.39
40502;BME280;29631;49.168;9.848;2023-02-18T04:12:16;97312.81;;;15.68;91.23
40502;BME280;29631;49.168;9.848;2023-02-18T04:14:42;97318.13;;;15.68;91.37
40502;BME280;29631;49.168;9.848;2023-02-18T04:17:08;97310.00;;;15.63;91.41
40502;BME280;29631;49.168;9.848;2023-02-18T04:19:34;97316.72;;;15.65;91.06
40502;BME280;29631;49.168;9.848;2023-02-18T04:22:00;97317.75;;;15.64;91.34
40502;BME280;29631;49.168;9.848;2023-02-18T04:24:26;97318.13;;;15.68;91.54
40502;BME280;29631;49.168;9.848;2023-02-18T04:26:52;97338.72;;;15.72;91.16
40502;BME280;29631;49.168;9.848;2023-02-18T04:29:18;97326.41;;;15.60;90.68
40502;BME280;29631;49.168;9.848;2023-02-18T04:31:43;97317.53;;;15.66;91.44
40502;BME280;29631;49.168;9.848;2023-02-18T04:34:09;97321.22;;;15.65;91.01
40502;BME280;29631;49.168;9.848;2023-02-18T04:36:35;97310.00;;;15.63;91.26
40502;BME280;29631;49.168;9.848;2023-02-18T04:39:00;97312.66;;;15.63;90.93
40502;BME280;29631;49.168;9.848;2023-02-18T04:41:26;97306.78;;;15.61;90.86
40502;BME280;29631;49.168;9.848;2023-02-18T04:43:52;97322.25;;;15.64;91.02
40502;BME280;29631;49.168;9.848;2023-02-18T04:46:18;97336.91;;;15.73;90.22
40502;BME280;29631;49.168;9.848;2023-02-18T04:48:43;97317.41;;;15.61;91.10
40502;BME280;29631;49.168;9.848;2023-02-18T04:51:09;97330.69;;;15.61;91.21
40502;BME280;29631;49.168;9.848;2023-02-18T04:53:35;97343.31;;;15.65;90.88
40502;BME280;29631;49.168;9.848;2023-02-18T04:56:01;97330.09;;;15.59;91.11
40502;BME280;29631;49.168;9.848;2023-02-18T04:58:26;97321.97;;;15.54;91.38
40502;BME280;29631;49.168;9.848;2023-02-18T05:00:52;97342.72;;;15.63;91.55
40502;BME280;29631;49.168;9.848;2023-02-18T05:03:18;97341.91;;;15.63;90.94
40502;BME280;29631;49.168;9.848;2023-02-18T05:05:44;97324.81;;;15.52;91.13
40502;BME280;29631;49.168;9.848;2023-02-18T05:08:11;97312.63;;;15.45;91.45
40502;BME280;29631;49.168;9.848;2023-02-18T05:10:37;97334.19;;;15.55;91.58
40502;BME280;29631;49.168;9.848;2023-02-18T05:13:03;97327.56;;;15.46;91.75
40502;BME280;29631;49.168;9.848;2023-02-18T05:15:29;97344.03;;;15.54;91.25
40502;BME280;29631;49.168;9.848;2023-02-18T05:17:55;97334.19;;;15.55;91.41
40502;BME280;29631;49.168;9.848;2023-02-18T05:20:20;97322.84;;;15.48;91.45
40502;BME280;29631;49.168;9.848;2023-02-18T05:22:46;97343.97;;;15.61;91.35
40502;BME280;29631;49.168;9.848;2023-02-18T05:25:12;97340.25;;;15.62;91.03
40502;BME280;29631;49.168;9.848;2023-02-18T05:27:38;97346.78;;;15.66;91.08
40502;BME280;29631;49.168;9.848;2023-02-18T05:30:04;97304.06;;;15.43;91.33
40502;BME280;29631;49.168;9.848;2023-02-18T05:32:31;97325.53;;;15.66;91.15
40502;BME280;29631;49.168;9.848;2023-02-18T05:34:57;97340.44;;;15.67;91.55
40502;BME280;29631;49.168;9.848;2023-02-18T05:37:22;97306.72;;;15.43;92.10
40502;BME280;29631;49.168;9.848;2023-02-18T05:39:48;97338.22;;;15.64;91.83
40502;BME280;29631;49.168;9.848;2023-02-18T05:42:14;97330.22;;;15.64;91.52
40502;BME280;29631;49.168;9.848;2023-02-18T05:44:40;97309.25;;;15.56;92.02
40502;BME280;29631;49.168;9.848;2023-02-18T05:47:10;97311.38;;;15.47;92.39
40502;BME280;29631;49.168;9.848;2023-02-18T05:49:38;97326.81;;;15.57;92.37
40502;BME280;29631;49.168;9.848;2023-02-18T05:52:05;97305.69;;;15.44;91.99
40502;BME280;29631;49.168;9.848;2023-02-18T05:54:31;97312.34;;;15.53;92.45
40502;BME280;29631;49.168;9.848;2023-02-18T05:56:57;97333.34;;;15.61;92.06
40502;BME280;29631;49.168;9.848;2023-02-18T05:59:23;97323.00;;;15.53;92.34
40502;BME280;29631;49.168;9.848;2023-02-18T06:01:50;97311.91;;;15.56;92.44
40502;BME280;29631;49.168;9.848;2023-02-18T06:04:16;97329.63;;;15.62;92.04
40502;BME280;29631;49.168;9.848;2023-02-18T06:06:41;97334.81;;;15.75;92.68
40502;BME280;29631;49.168;9.848;2023-02-18T06:09:08;97322.25;;;15.64;92.14
40502;BME280;29631;49.168;9.848;2023-02-18T06:11:34;97339.56;;;15.73;92.23
40502;BME280;29631;49.168;9.848;2023-02-18T06:14:00;97343.84;;;15.74;92.22
40502;BME280;29631;49.168;9.848;2023-02-18T06:16:26;97331.13;;;15.76;92.08
40502;BME280;29631;49.168;9.848;2023-02-18T06:18:52;97330.09;;;15.77;91.93
40502;BME280;29631;49.168;9.848;2023-02-18T06:21:18;97338.81;;;15.84;92.12
40502;BME280;29631;49.168;9.848;2023-02-18T06:23:44;97330.63;;;15.85;92.01
40502;BME280;29631;49.168;9.848;2023-02-18T06:26:10;97334.31;;;15.84;91.76
40502;BME280;29631;49.168;9.848;2023-02-18T06:28:35;97350.63;;;15.88;91.73
40502;BME280;29631;49.168;9.848;2023-02-18T06:31:01;97346.38;;;15.87;92.23
40502;BME280;29631;49.168;9.848;2023-02-18T06:33:27;97342.09;;;15.86;91.53
40502;BME280;29631;49.168;9.848;2023-02-18T06:36:02;97328.41;;;15.82;91.24
40502;BME280;29631;49.168;9.848;2023-02-18T06:38:31;97326.69;;;15.88;91.34
40502;BME280;29631;49.168;9.848;2023-02-18T06:40:57;97319.19;;;15.85;91.66
40502;BME280;29631;49.168;9.848;2023-02-18T06:43:23;97316.38;;;15.80;91.38
40502;BME280;29631;49.168;9.848;2023-02-18T06:45:49;97311.81;;;15.87;91.28
40502;BME280;29631;49.168;9.848;2023-02-18T06:48:14;97317.47;;;15.90;91.17
40502;BME280;29631;49.168;9.848;2023-02-18T06:50:41;97315.50;;;15.86;90.89
40502;BME280;29631;49.168;9.848;2023-02-18T06:53:07;97327.75;;;15.87;91.36
40502;BME280;29631;49.168;9.848;2023-02-18T06:55:33;97327.91;;;15.92;91.14
40502;BME280;29631;49.168;9.848;2023-02-18T06:57:59;97317.41;;;15.97;91.47
40502;BME280;29631;49.168;9.848;2023-02-18T07:00:24;97310.91;;;15.93;90.73
40502;BME280;29631;49.168;9.848;2023-02-18T07:02:50;97316.97;;;15.99;91.22
40502;BME280;29631;49.168;9.848;2023-02-18T07:05:16;97308.41;;;15.98;90.79
40502;BME280;29631;49.168;9.848;2023-02-18T07:07:42;97321.47;;;15.99;90.25
40502;BME280;29631;49.168;9.848;2023-02-18T07:10:08;97301.03;;;15.99;89.99
40502;BME280;29631;49.168;9.848;2023-02-18T07:12:34;97298.19;;;15.95;90.19
40502;BME280;29631;49.168;9.848;2023-02-18T07:15:00;97296.56;;;15.94;90.54
40502;BME280;29631;49.168;9.848;2023-02-18T07:17:26;97253.47;;;15.74;89.80
40502;BME280;29631;49.168;9.848;2023-02-18T07:19:52;97281.44;;;15.94;89.83
40502;BME280;29631;49.168;9.848;2023-02-18T07:22:20;97280.59;;;15.94;89.81
40502;BME280;29631;49.168;9.848;2023-02-18T07:24:50;97285.50;;;15.97;90.25
40502;BME280;29631;49.168;9.848;2023-02-18T07:27:16;97285.56;;;15.90;89.81
40502;BME280;29631;49.168;9.848;2023-02-18T07:29:41;97284.25;;;15.81;89.89
40502;BME280;29631;49.168;9.848;2023-02-18T07:32:07;97271.25;;;15.73;90.19
40502;BME280;29631;49.168;9.848;2023-02-18T07:34:33;97289.78;;;15.80;90.46
40502;BME280;29631;49.168;9.848;2023-02-18T07:36:58;97275.16;;;15.71;90.06
40502;BME280;29631;49.168;9.848;2023-02-18T07:39:24;97294.88;;;15.81;89.76
40502;BME280;29631;49.168;9.848;2023-02-18T07:41:50;97268.22;;;15.70;89.81
40502;BME280;29631;49.168;9.848;2023-02-18T07:44:15;97277.94;;;15.76;89.64
40502;BME280;29631;49.168;9.848;2023-02-18T07:46:41;97276.31;;;15.75;89.69
40502;BME280;29631;49.168;9.848;2023-02-18T07:49:08;97238.66;;;15.42;89.70
40502;BME280;29631;49.168;9.848;2023-02-18T07:51:34;97277.22;;;15.69;89.71
40502;BME280;29631;49.168;9.848;2023-02-18T07:54:00;97269.97;;;15.58;89.78
40502;BME280;29631;49.168;9.848;2023-02-18T07:56:25;97229.97;;;15.35;89.22
40502;BME280;29631;49.168;9.848;2023-02-18T07:58:51;97268.34;;;15.57;89.35
40502;BME280;29631;49.168;9.848;2023-02-18T08:01:17;97268.81;;;15.54;89.51
40502;BME280;29631;49.168;9.848;2023-02-18T08:03:42;97271.47;;;15.54;89.76
40502;BME280;29631;49.168;9.848;2023-02-18T08:06:24;97263.50;;;15.54;89.91
40502;BME280;29631;49.168;9.848;2023-02-18T08:08:51;97267.91;;;15.60;90.32
40502;BME280;29631;49.168;9.848;2023-02-18T08:11:16;97202.91;;;15.20;89.89
40502;BME280;29631;49.168;9.848;2023-02-18T08:13:42;97260.97;;;15.59;89.40
40502;BME280;29631;49.168;9.848;2023-02-18T08:16:09;97259.34;;;15.58;89.92
40502;BME280;29631;49.168;9.848;2023-02-18T08:18:34;97234.53;;;15.46;89.66
40502;BME280;29631;49.168;9.848;2023-02-18T08:21:00;97234.44;;;15.52;89.07
40502;BME280;29631;49.168;9.848;2023-02-18T08:23:26;97229.59;;;15.49;89.89
40502;BME280;29631;49.168;9.848;2023-02-18T08:25:52;97242.97;;;15.61;89.67
40502;BME280;29631;49.168;9.848;2023-02-18T08:28:21;97244.56;;;15.62;88.99
40502;BME280;29631;49.168;9.848;2023-02-18T08:30:49;97229.88;;;15.59;89.58
40502;BME280;29631;49.168;9.848;2023-02-18T08:33:16;97233.50;;;15.65;89.59
40502;BME280;29631;49.168;9.848;2023-02-18T08:35:43;97240.88;;;15.63;89.26
40502;BME280;29631;49.168;9.848;2023-02-18T08:38:08;97242.50;;;15.64;89.61
40502;BME280;29631;49.168;9.848;2023-02-18T08:40:34;97217.63;;;15.58;89.68
40502;BME280;29631;49.168;9.848;2023-02-18T08:43:00;97241.34;;;15.60;88.89
40502;BME280;29631;49.168;9.848;2023-02-18T08:45:26;97238.09;;;15.58;89.32
40502;BME280;29631;49.168;9.848;2023-02-18T08:47:52;97246.66;;;15.60;89.18
40502;BME280;29631;49.168;9.848;2023-02-18T08:50:18;97236.44;;;15.57;88.61
40502;BME280;29631;49.168;9.848;2023-02-18T08:52:46;97242.13;;;15.60;89.72
40502;BME280;29631;49.168;9.848;2023-02-18T08:55:12;97239.72;;;15.59;89.73
40502;BME280;29631;49.168;9.848;2023-02-18T08:57:38;97227.81;;;15.61;88.96
40502;BME280;29631;49.168;9.848;2023-02-18T09:00:04;97221.41;;;15.51;88.95
40502;BME280;29631;49.168;9.848;2023-02-18T09:02:30;97212.75;;;15.55;89.07
40502;BME280;29631;49.168;9.848;2023-02-18T09:04:56;97223.84;;;15.70;89.36
40502;BME280;29631;49.168;9.848;2023-02-18T09:07:22;97215.03;;;15.70;88.75
40502;BME280;29631;49.168;9.848;2023-02-18T09:09:48;97215.34;;;15.80;89.05
40502;BME280;29631;49.168;9.848;2023-02-18T09:12:13;97179.19;;;15.61;89.15
40502;BME280;29631;49.168;9.848;2023-02-18T09:14:39;97217.13;;;15.97;88.77
40502;BME280;29631;49.168;9.848;2023-02-18T09:17:05;97200.03;;;15.93;88.91
40502;BME280;29631;49.168;9.848;2023-02-18T09:19:31;97220.75;;;16.02;88.74
40502;BME280;29631;49.168;9.848;2023-02-18T09:21:57;97199.84;;;16.06;88.79
40502;BME280;29631;49.168;9.848;2023-02-18T09:24:22;97206.84;;;16.18;88.95
40502;BME280;29631;49.168;9.848;2023-02-18T09:26:50;97205.22;;;16.17;88.61
40502;BME280;29631;49.168;9.848;2023-02-18T09:29:16;97188.66;;;16.15;88.44
40502;BME280;29631;49.168;9.848;2023-02-18T09:31:44;97191.00;;;16.23;88.21
40502;BME280;29631;49.168;9.848;2023-02-18T09:34:10;97191.75;;;16.30;88.39
40502;BME280;29631;49.168;9.848;2023-02-18T09:36:37;97170.09;;;16.27;88.40
40502;BME280;29631;49.168;9.848;2023-02-18T09:39:03;97167.63;;;16.43;88.05
40502;BME280;29631;49.168;9.848;2023-02-18T09:41:50;97179.53;;;16.52;88.09
40502;BME280;29631;49.168;9.848;2023-02-18T09:44:31;97179.09;;;16.55;87.86
40502;BME280;29631;49.168;9.848;2023-02-18T09:47:35;97194.84;;;16.68;87.68
40502;BME280;29631;49.168;9.848;2023-02-18T09:50:31;97214.09;;;16.70;88.13
40502;BME280;29631;49.168;9.848;2023-02-18T09:53:02;97189.25;;;16.58;87.86
40502;BME280;29631;49.168;9.848;2023-02-18T09:55:32;97210.94;;;16.73;87.71
40502;BME280;29631;49.168;9.848;2023-02-18T09:58:02;97196.13;;;16.77;87.55
40502;BME280;29631;49.168;9.848;2023-02-18T10:00:41;97212.69;;;16.79;86.86
40502;BME280;29631;49.168;9.848;2023-02-18T10:03:21;97193.47;;;16.66;87.01
40502;BME280;29631;49.168;9.848;2023-02-18T10:06:04;97219.88;;;16.90;86.86
40502;BME280;29631;49.168;9.848;2023-02-18T10:08:41;97206.69;;;16.83;87.00
40502;BME280;29631;49.168;9.848;2023-02-18T10:11:31;97208.06;;;16.86;86.88
40502;BME280;29631;49.168;9.848;2023-02-18T10:13:59;97214.53;;;16.90;86.71
40502;BME280;29631;49.168;9.848;2023-02-18T10:16:26;97199.03;;;16.87;86.88
40502;BME280;29631;49.168;9.848;2023-02-18T10:19:03;97220.03;;;16.95;86.27
40502;BME280;29631;49.168;9.848;2023-02-18T10:21:33;97206.00;;;16.88;86.71
40502;BME280;29631;49.168;9.848;2023-02-18T10:26:36;97204.84;;;17.07;86.18
40502;BME280;29631;49.168;9.848;2023-02-18T10:29:04;97183.44;;;17.02;85.77
40502;BME280;29631;49.168;9.848;2023-02-18T10:31:44;97190.00;;;16.99;86.43
40502;BME280;29631;49.168;9.848;2023-02-18T10:46:37;97217.13;;;17.08;85.53
40502;BME280;29631;49.168;9.848;2023-02-18T10:51:52;97204.84;;;17.07;85.67
40502;BME280;29631;49.168;9.848;2023-02-18T10:54:25;97227.19;;;17.06;85.39
40502;BME280;29631;49.168;9.848;2023-02-18T10:56:57;97195.22;;;17.06;85.81
40502;BME280;29631;49.168;9.848;2023-02-18T10:59:31;97198.34;;;17.03;85.07
40502;BME280;29631;49.168;9.848;2023-02-18T11:02:12;97202.53;;;16.99;84.75
40502;BME280;29631;49.168;9.848;2023-02-18T11:04:41;97189.31;;;17.04;84.87
40502;BME280;29631;49.168;9.848;2023-02-18T11:07:22;97183.75;;;16.94;84.63
40502;BME280;29631;49.168;9.848;2023-02-18T11:09:58;97193.50;;;17.00;84.50
40502;BME280;29631;49.168;9.848;2023-02-18T11:15:18;97188.06;;;16.95;84.63
40502;BME280;29631;49.168;9.848;2023-02-18T11:17:48;97177.50;;;17.00;84.34
40502;BME280;29631;49.168;9.848;2023-02-18T11:20:34;97178.31;;;17.00;84.57
40502;BME280;29631;49.168;9.848;2023-02-18T11:25:35;97170.56;;;16.99;84.72
40502;BME280;29631;49.168;9.848;2023-02-18T11:30:47;97170.19;;;16.95;84.82
40502;BME280;29631;49.168;9.848;2023-02-18T11:35:57;97173.56;;;17.02;85.10
40502;BME280;29631;49.168;9.848;2023-02-18T11:38:26;97140.44;;;16.87;84.33
40502;BME280;29631;49.168;9.848;2023-02-18T11:41:09;97151.78;;;16.94;84.38
40502;BME280;29631;49.168;9.848;2023-02-18T11:43:36;97163.25;;;16.94;85.43
40502;BME280;29631;49.168;9.848;2023-02-18T11:46:20;97163.38;;;16.88;85.01
40502;BME280;29631;49.168;9.848;2023-02-18T11:48:47;97160.38;;;16.84;85.02
40502;BME280;29631;49.168;9.848;2023-02-18T11:51:19;97159.53;;;16.84;85.15
40502;BME280;29631;49.168;9.848;2023-02-18T11:54:04;97141.38;;;16.81;84.59
40502;BME280;29631;49.168;9.848;2023-02-18T11:56:35;97135.22;;;16.80;85.23
40502;BME280;29631;49.168;9.848;2023-02-18T11:59:02;97155.94;;;16.90;85.02
40502;BME280;29631;49.168;9.848;2023-02-18T12:12:43;97129.09;;;16.80;84.70
40502;BME280;29631;49.168;9.848;2023-02-18T12:15:17;97143.00;;;16.82;84.98
40502;BME280;29631;49.168;9.848;2023-02-18T12:20:43;97142.31;;;16.75;84.15
40502;BME280;29631;49.168;9.848;2023-02-18T12:31:56;97120.53;;;16.55;84.88
40502;BME280;29631;49.168;9.848;2023-02-18T12:43:34;97124.91;;;16.61;85.09
40502;BME280;29631;49.168;9.848;2023-02-18T12:46:22;97119.13;;;16.64;85.09
40502;BME280;29631;49.168;9.848;2023-02-18T13:06:27;97110.09;;;16.65;84.58
40502;BME280;29631;49.168;9.848;2023-02-18T13:12:49;97105.25;;;16.62;84.97
40502;BME280;29631;49.168;9.848;2023-02-18T13:18:09;97102.34;;;16.64;84.89
40502;BME280;29631;49.168;9.848;2023-02-18T13:20:55;97089.72;;;16.59;84.51
40502;BME280;29631;49.168;9.848;2023-02-18T13:23:28;97086.72;;;16.67;84.23
40502;BME280;29631;49.168;9.848;2023-02-18T13:26:02;97078.50;;;16.69;84.09
40502;BME280;29631;49.168;9.848;2023-02-18T13:35:04;97076.28;;;16.77;84.07
40502;BME280;29631;49.168;9.848;2023-02-18T13:40:56;97070.06;;;16.72;84.87
40502;BME280;29631;49.168;9.848;2023-02-18T13:43:34;97056.97;;;16.70;84.75
40502;BME280;29631;49.168;9.848;2023-02-18T13:48:51;97056.16;;;16.70;84.92
40502;BME280;29631;49.168;9.848;2023-02-18T13:51:31;97087.28;;;16.80;84.41
40502;BME280;29631;49.168;9.848;2023-02-18T13:57:34;97061.94;;;16.78;84.43
40502;BME280;29631;49.168;9.848;2023-02-18T14:00:24;97058.72;;;16.76;84.85
40502;BME280;29631;49.168;9.848;2023-02-18T14:03:01;97051.75;;;16.75;84.84
40502;BME280;29631;49.168;9.848;2023-02-18T14:05:42;97041.69;;;16.66;84.50
40502;BME280;29631;49.168;9.848;2023-02-18T14:08:15;97056.75;;;16.60;84.67
40502;BME280;29631;49.168;9.848;2023-02-18T14:16:09;97063.94;;;16.60;85.00
40502;BME280;29631;49.168;9.848;2023-02-18T14:21:41;97044.00;;;16.51;84.85
40502;BME280;29631;49.168;9.848;2023-02-18T14:24:10;97047.25;;;16.53;85.03
40502;BME280;29631;49.168;9.848;2023-02-18T14:26:45;97010.34;;;16.33;84.93
40502;BME280;29631;49.168;9.848;2023-02-18T14:29:26;97049.81;;;16.48;84.97
40502;BME280;29631;49.168;9.848;2023-02-18T14:32:02;97045.28;;;16.48;84.59
40502;BME280;29631;49.168;9.848;2023-02-18T14:34:56;97060.34;;;16.54;84.29
40502;BME280;29631;49.168;9.848;2023-02-18T14:37:46;97039.72;;;16.38;85.08
40502;BME280;29631;49.168;9.848;2023-02-18T14:40:43;97044.00;;;16.51;84.38
40502;BME280;29631;49.168;9.848;2023-02-18T14:51:58;97033.50;;;16.44;84.91
40502;BME280;29631;49.168;9.848;2023-02-18T14:54:25;97041.59;;;16.49;85.06
40502;BME280;29631;49.168;9.848;2023-02-18T14:57:15;97035.09;;;16.45;84.68
40502;BME280;29631;49.168;9.848;2023-02-18T14:59:43;97027.00;;;16.40;84.50
40502;BME280;29631;49.168;9.848;2023-02-18T15:02:23;97050.13;;;16.51;85.03
40502;BME280;29631;49.168;9.848;2023-02-18T15:04:52;97049.34;;;16.51;84.96
40502;BME280;29631;49.168;9.848;2023-02-18T15:07:20;97047.25;;;16.53;84.55
40502;BME280;29631;49.168;9.848;2023-02-18T15:09:52;97049.69;;;16.54;84.64
40502;BME280;29631;49.168;9.848;2023-02-18T15:12:23;97035.09;;;16.45;84.96
40502;BME280;29631;49.168;9.848;2023-02-18T15:14:51;97050.47;;;16.55;84.97
40502;BME280;29631;49.168;9.848;2023-02-18T15:17:24;97054.06;;;16.60;84.77
40502;BME280;29631;49.168;9.848;2023-02-18T15:19:56;97025.28;;;16.46;84.17
40502;BME280;29631;49.168;9.848;2023-02-18T15:22:25;97029.66;;;16.52;84.55
40502;BME280;29631;49.168;9.848;2023-02-18T15:24:54;97023.50;;;16.51;84.29
40502;BME280;29631;49.168;9.848;2023-02-18T15:27:26;97057.88;;;16.64;84.72
40502;BME280;29631;49.168;9.848;2023-02-18T15:32:32;97048.75;;;16.60;84.14
40502;BME280;29631;49.168;9.848;2023-02-18T15:35:01;97041.09;;;16.52;83.63
40502;BME280;29631;49.168;9.848;2023-02-18T15:37:30;97011.59;;;16.31;84.22
40502;BME280;29631;49.168;9.848;2023-02-18T15:39:56;97034.41;;;16.61;83.72
40502;BME280;29631;49.168;9.848;2023-02-18T15:42:27;97046.69;;;16.62;83.65
40502;BME280;29631;49.168;9.848;2023-02-18T15:45:50;97054.41;;;16.75;83.09
40502;BME280;29631;49.168;9.848;2023-02-18T15:48:45;97050.13;;;16.74;83.60
40502;BME280;29631;49.168;9.848;2023-02-18T15:51:16;97061.38;;;16.76;83.21
40502;BME280;29631;49.168;9.848;2023-02-18T15:53:45;97036.13;;;16.67;82.80
40502;BME280;29631;49.168;9.848;2023-02-18T15:56:26;97044.13;;;16.67;83.13
40502;BME280;29631;49.168;9.848;2023-02-18T15:59:19;97042.50;;;16.66;83.23
40502;BME280;29631;49.168;9.848;2023-02-18T16:02:02;97049.78;;;16.59;82.55